createdAt,value
2023-04-16T00:02:41.758Z,20.03
2023-04-16T00:05:44.491Z,20.25
2023-04-16T00:08:46.863Z,17.30
2023-04-16T00:11:49.541Z,21.10
2023-04-16T00:14:51.869Z,18.37
2023-04-16T00:17:54.519Z,16.73
2023-04-16T00:20:56.837Z,19.10
2023-04-16T00:23:59.538Z,18.42
2023-04-16T00:27:02.092Z,19.00
2023-04-16T00:30:07.911Z,16.42
2023-04-16T00:33:10.332Z,17.23
2023-04-16T00:36:13.025Z,20.40
2023-04-16T00:39:15.655Z,19.65
2023-04-16T00:42:18.384Z,18.35
2023-04-16T00:45:20.685Z,21.02
2023-04-16T00:48:23.835Z,21.07
2023-04-16T00:51:27.098Z,19.83
2023-04-16T00:54:31.906Z,19.15
2023-04-16T00:57:34.192Z,19.05
2023-04-16T01:00:36.806Z,19.10
2023-04-16T01:03:44.288Z,18.30
2023-04-16T01:06:46.993Z,21.30
2023-04-16T01:09:49.610Z,21.08
2023-04-16T01:12:52.251Z,21.95
2023-04-16T01:15:54.650Z,22.40
2023-04-16T01:18:57.570Z,21.50
2023-04-16T01:22:00.284Z,20.75
2023-04-16T01:25:03.110Z,23.83
2023-04-16T01:28:06.471Z,21.48
2023-04-16T01:31:09.130Z,21.85
2023-04-16T01:34:12.949Z,19.13
2023-04-16T01:37:15.787Z,21.60
2023-04-16T01:40:18.931Z,19.73
2023-04-16T01:43:21.548Z,21.05
2023-04-16T01:46:29.072Z,19.33
2023-04-16T01:49:31.815Z,17.37
2023-04-16T01:52:34.143Z,19.62
2023-04-16T01:55:36.801Z,18.25
2023-04-16T01:58:39.821Z,18.35
2023-04-16T02:01:43.369Z,20.15
2023-04-16T02:04:46.600Z,19.33
2023-04-16T02:07:49.056Z,23.25
2023-04-16T02:10:52.482Z,18.95
2023-04-16T02:13:55.070Z,19.98
2023-04-16T02:16:58.174Z,17.95
2023-04-16T02:20:03.325Z,17.73
2023-04-16T02:23:06.270Z,19.92
2023-04-16T02:26:08.615Z,19.58
2023-04-16T02:29:12.335Z,17.48
2023-04-16T02:32:15.464Z,18.08
2023-04-16T02:35:18.874Z,18.23
2023-04-16T02:38:21.182Z,16.98
2023-04-16T02:41:23.888Z,16.12
2023-04-16T02:44:26.247Z,16.98
2023-04-16T02:47:28.962Z,18.02
2023-04-16T02:50:31.436Z,16.07
2023-04-16T02:53:34.325Z,17.42
2023-04-16T02:56:36.765Z,17.77
2023-04-16T02:59:39.356Z,17.50
2023-04-16T03:02:42.652Z,15.80
2023-04-16T03:05:45.640Z,16.13
2023-04-16T03:08:47.972Z,16.87
2023-04-16T03:11:51.095Z,16.52
2023-04-16T03:14:53.485Z,15.93
2023-04-16T03:17:56.313Z,15.45
2023-04-16T03:20:58.765Z,16.67
2023-04-16T03:24:01.845Z,17.45
2023-04-16T03:27:04.390Z,15.50
2023-04-16T03:30:08.545Z,17.92
2023-04-16T03:33:11.642Z,16.73
2023-04-16T03:36:15.889Z,17.23
2023-04-16T03:39:18.453Z,15.18
2023-04-16T03:42:21.593Z,14.82
2023-04-16T03:45:23.969Z,17.17
2023-04-16T03:48:26.734Z,15.45
2023-04-16T03:51:29.358Z,15.93
2023-04-16T03:54:32.448Z,15.15
2023-04-16T03:57:37.825Z,13.05
2023-04-16T04:00:42.934Z,14.45
2023-04-16T04:03:46.124Z,13.60
2023-04-16T04:06:48.839Z,14.97
2023-04-16T04:09:51.597Z,15.77
2023-04-16T04:12:54.121Z,13.82
2023-04-16T04:15:56.895Z,14.60
2023-04-16T04:19:00.378Z,14.38
2023-04-16T04:22:03.680Z,13.93
2023-04-16T04:25:06.625Z,16.17
2023-04-16T04:28:09.247Z,13.05
2023-04-16T04:31:11.786Z,14.87
2023-04-16T04:34:15.664Z,13.52
2023-04-16T04:37:18.057Z,14.93
2023-04-16T04:40:21.055Z,13.32
2023-04-16T04:43:24.022Z,14.98
2023-04-16T04:46:26.670Z,13.45
2023-04-16T04:49:30.506Z,12.95
2023-04-16T04:52:33.180Z,13.93
2023-04-16T04:55:37.499Z,13.07
2023-04-16T04:58:41.185Z,13.60
2023-04-16T05:01:43.606Z,14.38
2023-04-16T05:04:46.291Z,15.50
2023-04-16T05:07:48.617Z,14.10
2023-04-16T05:10:51.203Z,15.13
2023-04-16T05:13:53.604Z,15.23
2023-04-16T05:16:56.597Z,15.85
2023-04-16T05:20:00.359Z,13.18
2023-04-16T05:23:03.285Z,15.60
2023-04-16T05:26:05.601Z,13.15
2023-04-16T05:29:11.435Z,14.05
2023-04-16T05:32:14.022Z,13.15
2023-04-16T05:35:17.614Z,14.80
2023-04-16T05:38:20.248Z,14.83
2023-04-16T05:41:22.960Z,15.23
2023-04-16T05:44:26.052Z,14.32
2023-04-16T05:47:28.712Z,13.98
2023-04-16T05:50:31.184Z,14.10
2023-04-16T05:53:33.818Z,14.30
2023-04-16T05:56:36.201Z,14.27
2023-04-16T05:59:38.788Z,14.25
2023-04-16T06:02:41.405Z,14.50
2023-04-16T06:05:44.715Z,12.85
2023-04-16T06:08:47.081Z,14.53
2023-04-16T06:11:49.691Z,15.88
2023-04-16T06:14:52.093Z,13.27
2023-04-16T06:17:55.861Z,13.50
2023-04-16T06:21:00.979Z,15.63
2023-04-16T06:24:03.760Z,13.07
2023-04-16T06:27:06.162Z,12.25
2023-04-16T06:30:13.575Z,14.18
2023-04-16T06:33:16.329Z,12.65
2023-04-16T06:36:18.989Z,12.73
2023-04-16T06:39:21.916Z,13.13
2023-04-16T06:42:24.521Z,13.90
2023-04-16T06:45:26.915Z,11.50
2023-04-16T06:48:30.010Z,13.25
2023-04-16T06:51:32.679Z,12.48
2023-04-16T06:54:35.548Z,11.23
2023-04-16T06:57:37.896Z,11.57
2023-04-16T07:00:42.823Z,12.15
2023-04-16T07:03:45.675Z,10.93
2023-04-16T07:06:48.458Z,19.08
2023-04-16T07:09:50.952Z,10.57
2023-04-16T07:12:53.636Z,11.32
2023-04-16T07:15:56.002Z,10.93
2023-04-16T07:18:58.714Z,13.57
2023-04-16T07:22:01.340Z,11.73
2023-04-16T07:25:04.393Z,15.47
2023-04-16T07:28:06.682Z,12.80
2023-04-16T07:31:09.420Z,11.02
2023-04-16T07:34:12.124Z,11.55
2023-04-16T07:37:14.740Z,11.65
2023-04-16T07:40:17.191Z,12.00
2023-04-16T07:43:19.790Z,9.73
2023-04-16T07:46:22.157Z,10.38
2023-04-16T07:49:24.914Z,8.82
2023-04-16T07:52:27.224Z,9.82
2023-04-16T07:55:29.832Z,9.50
2023-04-16T07:58:32.183Z,10.85
2023-04-16T08:01:34.906Z,9.32
2023-04-16T08:04:37.842Z,7.32
2023-04-16T08:07:40.311Z,11.27
2023-04-16T08:10:42.916Z,10.53
2023-04-16T08:13:45.409Z,7.97
2023-04-16T08:16:48.019Z,7.90
2023-04-16T08:19:50.408Z,9.00
2023-04-16T08:22:54.897Z,8.02
2023-04-16T08:25:57.515Z,8.20
2023-04-16T08:29:00.352Z,11.18
2023-04-16T08:32:02.838Z,8.40
2023-04-16T08:35:06.035Z,8.13
2023-04-16T08:38:08.299Z,8.07
2023-04-16T08:41:13.455Z,9.77
2023-04-16T08:44:27.845Z,8.02
2023-04-16T08:47:34.461Z,8.30
2023-04-16T08:50:37.319Z,7.40
2023-04-16T08:53:51.989Z,7.93
2023-04-16T08:56:55.804Z,7.37
2023-04-16T08:59:59.663Z,9.82
2023-04-16T09:03:03.298Z,8.32
2023-04-16T09:06:07.545Z,7.60
2023-04-16T09:09:12.668Z,7.15
2023-04-16T09:12:15.737Z,9.60
2023-04-16T09:15:20.984Z,6.93
2023-04-16T09:18:24.480Z,9.85
2023-04-16T09:21:28.033Z,6.40
2023-04-16T09:24:31.617Z,6.60
2023-04-16T09:27:33.937Z,7.60
2023-04-16T09:30:37.604Z,8.05
2023-04-16T09:33:40.510Z,7.43
2023-04-16T09:36:43.079Z,7.25
2023-04-16T09:39:54.020Z,6.22
2023-04-16T09:43:00.702Z,6.47
2023-04-16T09:46:08.104Z,9.45
2023-04-16T09:49:15.529Z,7.15
2023-04-16T09:52:22.990Z,8.23
2023-04-16T09:55:27.771Z,6.47
2023-04-16T09:58:30.329Z,8.07
2023-04-16T10:01:33.036Z,6.80
2023-04-16T10:04:49.594Z,6.70
2023-04-16T10:07:52.758Z,9.55
2023-04-16T10:10:56.401Z,7.62
2023-04-16T10:13:58.827Z,8.13
2023-04-16T10:17:02.390Z,6.40
2023-04-16T10:20:07.227Z,7.35
2023-04-16T10:23:10.385Z,6.62
2023-04-16T10:26:13.658Z,7.05
2023-04-16T10:29:16.711Z,7.33
2023-04-16T10:32:21.940Z,6.37
2023-04-16T10:35:25.789Z,6.65
2023-04-16T10:38:28.525Z,5.78
2023-04-16T10:41:33.701Z,6.65
2023-04-16T10:44:36.585Z,7.07
2023-04-16T10:47:40.708Z,7.45
2023-04-16T10:50:43.203Z,6.35
2023-04-16T10:53:45.843Z,6.85
2023-04-16T10:56:48.141Z,6.97
2023-04-16T10:59:50.721Z,5.50
2023-04-16T11:02:54.397Z,7.28
2023-04-16T11:06:12.090Z,7.32
2023-04-16T11:09:49.825Z,7.85
2023-04-16T11:12:54.636Z,6.12
2023-04-16T11:15:58.402Z,6.17
2023-04-16T11:19:01.372Z,6.30
2023-04-16T11:22:04.284Z,5.62
2023-04-16T11:25:07.275Z,5.57
2023-04-16T11:28:09.586Z,5.57
2023-04-16T11:31:12.741Z,5.30
2023-04-16T11:34:16.811Z,5.18
2023-04-16T11:37:35.542Z,4.95
2023-04-16T11:40:37.959Z,5.87
2023-04-16T11:43:40.559Z,6.85
2023-04-16T11:46:42.975Z,7.47
2023-04-16T11:49:45.613Z,6.47
2023-04-16T11:52:49.128Z,5.37
2023-04-16T11:55:51.822Z,7.43
2023-04-16T11:59:16.615Z,5.15
2023-04-16T12:02:37.749Z,5.00
2023-04-16T12:05:40.838Z,5.93
2023-04-16T12:08:43.393Z,5.62
2023-04-16T12:11:46.561Z,5.87
2023-04-16T12:14:52.038Z,5.40
2023-04-16T12:18:08.169Z,5.93
2023-04-16T12:21:10.814Z,5.43
2023-04-16T12:24:15.466Z,5.62
2023-04-16T12:27:17.771Z,4.78
2023-04-16T12:30:22.874Z,4.70
2023-04-16T12:33:25.387Z,4.70
2023-04-16T12:36:28.110Z,4.97
2023-04-16T12:39:30.596Z,4.35
2023-04-16T12:42:37.376Z,5.85
2023-04-16T12:45:40.493Z,5.72
2023-04-16T12:48:43.669Z,5.43
2023-04-16T12:51:46.905Z,5.55
2023-04-16T12:54:49.601Z,5.18
2023-04-16T12:57:55.678Z,6.20
2023-04-16T13:00:58.751Z,5.32
2023-04-16T13:04:01.217Z,5.87
2023-04-16T13:07:04.004Z,4.30
2023-04-16T13:10:07.201Z,5.12
2023-04-16T13:13:09.876Z,5.10
2023-04-16T13:16:12.696Z,7.05
2023-04-16T13:19:15.984Z,4.40
2023-04-16T13:22:18.429Z,4.00
2023-04-16T13:25:21.131Z,4.68
2023-04-16T13:28:23.571Z,4.05
2023-04-16T13:31:26.707Z,5.30
2023-04-16T13:34:29.227Z,5.97
2023-04-16T13:37:31.831Z,4.07
2023-04-16T13:40:34.172Z,5.35
2023-04-16T13:43:37.335Z,4.80
2023-04-16T13:46:39.844Z,5.03
2023-04-16T13:49:42.696Z,5.27
2023-04-16T13:52:44.990Z,6.22
2023-04-16T13:55:49.518Z,4.35
2023-04-16T13:58:52.277Z,4.53
2023-04-16T14:01:55.101Z,4.87
2023-04-16T14:04:57.816Z,5.07
2023-04-16T14:08:00.391Z,4.72
2023-04-16T14:11:03.053Z,4.43
2023-04-16T14:14:05.486Z,5.43
2023-04-16T14:17:08.120Z,4.30
2023-04-16T14:20:12.608Z,5.80
2023-04-16T14:23:15.186Z,4.90
2023-04-16T14:26:17.577Z,6.90
2023-04-16T14:29:20.258Z,5.03
2023-04-16T14:32:23.298Z,6.03
2023-04-16T14:35:26.549Z,5.37
2023-04-16T14:38:28.971Z,4.65
2023-04-16T14:41:31.722Z,6.87
2023-04-16T14:44:34.132Z,4.82
2023-04-16T14:47:38.473Z,5.35
2023-04-16T14:50:43.946Z,4.20
2023-04-16T14:53:46.895Z,4.50
2023-04-16T14:56:50.032Z,5.37
2023-04-16T14:59:52.620Z,6.20
2023-04-16T15:02:55.681Z,5.10
2023-04-16T15:05:59.341Z,4.80
2023-04-16T15:09:01.962Z,5.62
2023-04-16T15:12:04.758Z,6.90
2023-04-16T15:15:08.141Z,4.60
2023-04-16T15:18:10.952Z,9.15
2023-04-16T15:21:13.618Z,4.73
2023-04-16T15:24:16.254Z,5.43
2023-04-16T15:27:19.433Z,4.85
2023-04-16T15:30:22.072Z,4.25
2023-04-16T15:33:24.892Z,4.82
2023-04-16T15:36:27.541Z,5.30
2023-04-16T15:39:31.573Z,5.07
2023-04-16T15:42:34.775Z,7.82
2023-04-16T15:45:37.562Z,4.68
2023-04-16T15:48:40.232Z,4.62
2023-04-16T15:51:42.610Z,7.17
2023-04-16T15:54:45.839Z,4.50
2023-04-16T15:57:48.259Z,4.20
2023-04-16T16:00:50.895Z,4.78
2023-04-16T16:03:53.912Z,4.37
2023-04-16T16:06:56.685Z,4.40
2023-04-16T16:09:59.593Z,5.55
2023-04-16T16:13:07.354Z,6.07
2023-04-16T16:16:10.006Z,4.35
2023-04-16T16:19:12.587Z,4.50
2023-04-16T16:22:16.024Z,4.30
2023-04-16T16:25:18.819Z,5.55
2023-04-16T16:28:21.590Z,6.85
2023-04-16T16:31:24.537Z,5.57
2023-04-16T16:34:28.207Z,6.10
2023-04-16T16:37:30.527Z,5.27
2023-04-16T16:40:33.310Z,4.95
2023-04-16T16:43:36.776Z,5.22
2023-04-16T16:46:39.538Z,5.82
2023-04-16T16:49:41.926Z,6.25
2023-04-16T16:52:44.832Z,6.73
2023-04-16T16:55:47.236Z,5.75
2023-04-16T16:58:49.894Z,6.03
2023-04-16T17:01:52.295Z,7.10
2023-04-16T17:04:55.045Z,5.18
2023-04-16T17:07:57.431Z,4.77
2023-04-16T17:11:03.556Z,5.90
2023-04-16T17:14:06.027Z,5.70
2023-04-16T17:17:08.908Z,6.80
2023-04-16T17:20:12.567Z,6.15
2023-04-16T17:23:15.639Z,5.63
2023-04-16T17:26:17.957Z,6.80
2023-04-16T17:29:25.804Z,4.93
2023-04-16T17:32:29.686Z,5.90
2023-04-16T17:35:32.406Z,6.97
2023-04-16T17:38:34.799Z,6.63
2023-04-16T17:41:37.452Z,4.40
2023-04-16T17:44:39.771Z,4.62
2023-04-16T17:47:42.494Z,5.37
2023-04-16T17:50:44.824Z,5.65
2023-04-16T17:53:47.626Z,5.23
2023-04-16T17:56:49.933Z,5.10
2023-04-16T17:59:52.768Z,5.43
2023-04-16T18:02:56.752Z,6.00
2023-04-16T18:05:59.984Z,5.70
2023-04-16T18:09:04.816Z,4.70
2023-04-16T18:12:08.044Z,5.80
2023-04-16T18:15:10.740Z,4.30
2023-04-16T18:18:13.501Z,9.70
2023-04-16T18:21:15.836Z,5.28
2023-04-16T18:24:18.416Z,5.00
2023-04-16T18:27:21.597Z,7.55
2023-04-16T18:30:26.634Z,5.10
2023-04-16T18:33:49.991Z,6.10
2023-04-16T18:36:52.277Z,6.07
2023-04-16T18:39:57.784Z,5.00
2023-04-16T18:43:00.697Z,5.57
2023-04-16T18:46:03.094Z,5.22
2023-04-16T18:49:05.969Z,5.40
2023-04-16T18:52:08.768Z,5.10
2023-04-16T18:55:11.362Z,7.87
2023-04-16T18:58:13.742Z,4.20
2023-04-16T19:01:16.535Z,5.68
2023-04-16T19:04:19.522Z,6.00
2023-04-16T19:07:22.264Z,5.20
2023-04-16T19:10:24.636Z,6.40
2023-04-16T19:13:27.399Z,5.28
2023-04-16T19:16:29.814Z,4.80
2023-04-16T19:19:32.469Z,5.12
2023-04-16T19:22:34.778Z,7.25
2023-04-16T19:25:37.479Z,5.07
2023-04-16T19:28:40.007Z,5.07
2023-04-16T19:31:42.713Z,5.65
2023-04-16T19:34:45.106Z,7.45
2023-04-16T19:37:50.523Z,6.50
2023-04-16T19:40:52.981Z,5.10
2023-04-16T19:43:55.691Z,7.25
2023-04-16T19:46:58.925Z,10.23
2023-04-16T19:50:07.899Z,13.02
2023-04-16T19:53:11.332Z,4.72
2023-04-16T19:56:15.908Z,6.23
2023-04-16T19:59:18.371Z,5.15
2023-04-16T20:02:21.072Z,5.47
2023-04-16T20:05:26.424Z,5.82
2023-04-16T20:08:28.744Z,6.37
2023-04-16T20:11:31.418Z,4.73
2023-04-16T20:14:33.725Z,7.43
2023-04-16T20:17:36.373Z,4.97
2023-04-16T20:20:38.736Z,5.03
2023-04-16T20:23:41.426Z,5.25
2023-04-16T20:26:43.769Z,4.60
2023-04-16T20:29:46.469Z,5.07
2023-04-16T20:32:48.956Z,5.43
2023-04-16T20:35:52.274Z,6.25
2023-04-16T20:38:54.708Z,6.03
2023-04-16T20:41:57.321Z,4.57
2023-04-16T20:45:00.710Z,5.72
2023-04-16T20:48:03.845Z,5.12
2023-04-16T20:51:10.306Z,4.87
2023-04-16T20:54:13.100Z,4.45
2023-04-16T20:57:15.588Z,7.20
2023-04-16T21:00:18.413Z,6.32
2023-04-16T21:03:21.577Z,5.55
2023-04-16T21:06:24.319Z,4.28
2023-04-16T21:09:27.124Z,5.40
2023-04-16T21:12:29.840Z,5.43
2023-04-16T21:15:32.774Z,5.00
2023-04-16T21:18:36.891Z,4.20
2023-04-16T21:21:39.632Z,4.95
2023-04-16T21:24:42.265Z,6.50
2023-04-16T21:27:44.641Z,4.63
2023-04-16T21:30:51.770Z,4.75
2023-04-16T21:33:54.116Z,4.93
2023-04-16T21:36:56.679Z,6.57
2023-04-16T21:39:59.120Z,5.12
2023-04-16T21:43:01.714Z,4.70
2023-04-16T21:46:04.107Z,5.20
2023-04-16T21:49:06.778Z,5.10
2023-04-16T21:52:14.185Z,5.10
2023-04-16T21:55:16.951Z,4.60
2023-04-16T21:58:19.298Z,4.67
2023-04-16T22:01:22.132Z,4.40
2023-04-16T22:04:26.470Z,4.30
2023-04-16T22:07:28.969Z,5.60
2023-04-16T22:10:31.567Z,6.28
2023-04-16T22:13:33.892Z,4.80
2023-04-16T22:16:36.675Z,5.15
2023-04-16T22:19:39.463Z,5.90
2023-04-16T22:22:42.603Z,5.00
2023-04-16T22:25:45.076Z,4.40
2023-04-16T22:28:47.673Z,4.60
2023-04-16T22:31:50.148Z,5.05
2023-04-16T22:34:52.775Z,4.45
2023-04-16T22:37:55.127Z,5.25
2023-04-16T22:40:57.751Z,4.93
2023-04-16T22:44:00.133Z,4.33
2023-04-16T22:47:02.860Z,3.90
2023-04-16T22:50:06.327Z,4.53
2023-04-16T22:53:08.964Z,6.75
2023-04-16T22:56:11.884Z,4.62
2023-04-16T22:59:14.540Z,4.50
2023-04-16T23:02:17.378Z,4.78
2023-04-16T23:05:20.290Z,6.97
2023-04-16T23:08:22.676Z,5.57
2023-04-16T23:11:25.436Z,5.22
2023-04-16T23:14:27.774Z,4.93
2023-04-16T23:17:30.408Z,4.62
2023-04-16T23:20:32.726Z,5.28
2023-04-16T23:23:35.321Z,4.68
2023-04-16T23:26:37.605Z,4.50
2023-04-16T23:29:40.203Z,4.43
2023-04-16T23:32:42.500Z,5.28
2023-04-16T23:35:46.692Z,4.50
2023-04-16T23:38:48.956Z,4.72
2023-04-16T23:41:51.538Z,4.97
2023-04-16T23:44:53.853Z,4.37
2023-04-16T23:47:56.501Z,5.50
2023-04-16T23:50:59.261Z,4.22
2023-04-16T23:54:02.000Z,6.50
2023-04-16T23:57:04.445Z,5.18
